sensor_id;sensor_type;location;lat;lon;timestamp;temperature;humidity
20858;DHT22;10589;53.636;10.012;2023-02-15T04:45:18;3.90;99.90
20858;DHT22;10589;53.636;10.012;2023-02-15T04:47:44;3.80;99.90
20858;DHT22;10589;53.636;10.012;2023-02-15T04:50:10;3.90;99.90
20858;DHT22;10589;53.636;10.012;2023-02-15T04:52:36;3.80;99.90
20858;DHT22;10589;53.636;10.012;2023-02-15T04:55:01;3.80;99.90
20858;DHT22;10589;53.636;10.012;2023-02-15T04:57:27;3.90;99.90
20858;DHT22;10589;53.636;10.012;2023-02-15T04:59:52;3.90;99.90
20858;DHT22;10589;53.636;10.012;2023-02-15T05:02:18;3.80;99.90
20858;DHT22;10589;53.636;10.012;2023-02-15T05:04:44;3.90;99.90
20858;DHT22;10589;53.636;10.012;2023-02-15T05:07:10;3.80;99.90
20858;DHT22;10589;53.636;10.012;2023-02-15T05:09:35;3.70;99.90
20858;DHT22;10589;53.636;10.012;2023-02-15T05:12:01;3.70;99.90
20858;DHT22;10589;53.636;10.012;2023-02-15T05:14:26;3.70;99.90
20858;DHT22;10589;53.636;10.012;2023-02-15T05:16:52;3.70;99.90
20858;DHT22;10589;53.636;10.012;2023-02-15T05:19:19;3.70;99.90
20858;DHT22;10589;53.636;10.012;2023-02-15T05:21:45;3.70;99.90
20858;DHT22;10589;53.636;10.012;2023-02-15T05:24:10;3.60;99.90
20858;DHT22;10589;53.636;10.012;2023-02-15T05:26:54;3.60;99.90
20858;DHT22;10589;53.636;10.012;2023-02-15T05:29:39;3.60;99.90
20858;DHT22;10589;53.636;10.012;2023-02-15T05:32:04;3.60;99.90
20858;DHT22;10589;53.636;10.012;2023-02-15T05:34:30;3.60;99.90
20858;DHT22;10589;53.636;10.012;2023-02-15T05:36:56;3.60;99.90
20858;DHT22;10589;53.636;10.012;2023-02-15T05:39:22;3.60;99.90
20858;DHT22;10589;53.636;10.012;2023-02-15T05:41:47;3.70;99.90
20858;DHT22;10589;53.636;10.012;2023-02-15T05:44:13;3.70;99.90
20858;DHT22;10589;53.636;10.012;2023-02-15T05:46:38;3.70;99.90
20858;DHT22;10589;53.636;10.012;2023-02-15T05:49:04;3.70;99.90
20858;DHT22;10589;53.636;10.012;2023-02-15T05:51:29;3.70;99.90
20858;DHT22;10589;53.636;10.012;2023-02-15T05:53:55;3.60;99.90
20858;DHT22;10589;53.636;10.012;2023-02-15T05:56:21;3.50;99.90
20858;DHT22;10589;53.636;10.012;2023-02-15T05:58:47;3.50;99.90
20858;DHT22;10589;53.636;10.012;2023-02-15T06:01:18;3.50;99.90
20858;DHT22;10589;53.636;10.012;2023-02-15T06:03:45;3.50;99.90
20858;DHT22;10589;53.636;10.012;2023-02-15T06:06:11;3.50;99.90
20858;DHT22;10589;53.636;10.012;2023-02-15T06:08:37;3.50;99.90
20858;DHT22;10589;53.636;10.012;2023-02-15T06:11:04;3.40;99.90
20858;DHT22;10589;53.636;10.012;2023-02-15T06:13:30;3.40;99.90
20858;DHT22;10589;53.636;10.012;2023-02-15T06:15:56;3.40;99.90
20858;DHT22;10589;53.636;10.012;2023-02-15T06:18:22;3.40;99.90
20858;DHT22;10589;53.636;10.012;2023-02-15T06:20:48;3.40;99.90
20858;DHT22;10589;53.636;10.012;2023-02-15T06:23:14;3.40;99.90
20858;DHT22;10589;53.636;10.012;2023-02-15T06:25:40;3.40;99.90
20858;DHT22;10589;53.636;10.012;2023-02-15T06:28:06;3.50;99.90
20858;DHT22;10589;53.636;10.012;2023-02-15T06:30:32;3.50;99.90
20858;DHT22;10589;53.636;10.012;2023-02-15T06:32:58;3.40;99.90
20858;DHT22;10589;53.636;10.012;2023-02-15T06:35:23;3.50;99.90
20858;DHT22;10589;53.636;10.012;2023-02-15T06:37:49;3.50;99.90
20858;DHT22;10589;53.636;10.012;2023-02-15T06:40:15;3.50;99.90
20858;DHT22;10589;53.636;10.012;2023-02-15T06:42:41;3.50;99.90
20858;DHT22;10589;53.636;10.012;2023-02-15T06:45:08;3.50;99.90
20858;DHT22;10589;53.636;10.012;2023-02-15T06:47:34;3.50;99.90
20858;DHT22;10589;53.636;10.012;2023-02-15T06:50:00;3.50;99.90
20858;DHT22;10589;53.636;10.012;2023-02-15T06:52:25;3.40;99.90
20858;DHT22;10589;53.636;10.012;2023-02-15T06:54:51;3.50;99.90
20858;DHT22;10589;53.636;10.012;2023-02-15T06:57:17;3.40;99.90
20858;DHT22;10589;53.636;10.012;2023-02-15T06:59:42;3.40;99.90
20858;DHT22;10589;53.636;10.012;2023-02-15T07:02:10;3.40;99.90
20858;DHT22;10589;53.636;10.012;2023-02-15T07:04:36;3.40;99.90
20858;DHT22;10589;53.636;10.012;2023-02-15T07:07:02;3.30;99.90
20858;DHT22;10589;53.636;10.012;2023-02-15T07:09:27;3.40;99.90
20858;DHT22;10589;53.636;10.012;2023-02-15T07:11:53;3.40;99.90
20858;DHT22;10589;53.636;10.012;2023-02-15T07:14:37;3.30;99.90
20858;DHT22;10589;53.636;10.012;2023-02-15T07:17:02;3.30;99.90
20858;DHT22;10589;53.636;10.012;2023-02-15T07:19:28;3.30;99.90
20858;DHT22;10589;53.636;10.012;2023-02-15T07:21:53;3.30;99.90
20858;DHT22;10589;53.636;10.012;2023-02-15T07:24:19;3.30;99.90
20858;DHT22;10589;53.636;10.012;2023-02-15T07:26:45;3.40;99.90
20858;DHT22;10589;53.636;10.012;2023-02-15T07:29:10;3.40;99.90
20858;DHT22;10589;53.636;10.012;2023-02-15T07:31:36;3.40;99.90
20858;DHT22;10589;53.636;10.012;2023-02-15T07:34:02;3.30;99.90
20858;DHT22;10589;53.636;10.012;2023-02-15T07:36:35;3.30;99.90
20858;DHT22;10589;53.636;10.012;2023-02-15T07:39:19;3.30;99.90
20858;DHT22;10589;53.636;10.012;2023-02-15T07:41:49;3.30;99.90
20858;DHT22;10589;53.636;10.012;2023-02-15T07:44:16;3.40;99.90
20858;DHT22;10589;53.636;10.012;2023-02-15T07:46:43;3.40;99.90
20858;DHT22;10589;53.636;10.012;2023-02-15T07:49:09;3.50;99.90
20858;DHT22;10589;53.636;10.012;2023-02-15T07:51:35;3.50;99.90
20858;DHT22;10589;53.636;10.012;2023-02-15T07:54:01;3.50;99.90
20858;DHT22;10589;53.636;10.012;2023-02-15T07:56:26;3.40;99.90
20858;DHT22;10589;53.636;10.012;2023-02-15T07:58:52;3.40;99.90
20858;DHT22;10589;53.636;10.012;2023-02-15T08:01:30;3.40;99.90
20858;DHT22;10589;53.636;10.012;2023-02-15T08:03:57;3.40;99.90
20858;DHT22;10589;53.636;10.012;2023-02-15T08:06:25;3.50;99.90
20858;DHT22;10589;53.636;10.012;2023-02-15T08:08:51;3.30;99.90
20858;DHT22;10589;53.636;10.012;2023-02-15T08:11:37;3.30;99.90
20858;DHT22;10589;53.636;10.012;2023-02-15T08:14:10;3.40;99.90
20858;DHT22;10589;53.636;10.012;2023-02-15T08:16:40;3.40;99.90
20858;DHT22;10589;53.636;10.012;2023-02-15T08:19:29;3.40;99.90
20858;DHT22;10589;53.636;10.012;2023-02-15T08:22:00;3.50;99.90
20858;DHT22;10589;53.636;10.012;2023-02-15T08:24:29;3.30;99.90
20858;DHT22;10589;53.636;10.012;2023-02-15T08:26:55;3.30;99.90
20858;DHT22;10589;53.636;10.012;2023-02-15T08:29:24;3.30;99.90
20858;DHT22;10589;53.636;10.012;2023-02-15T08:31:54;3.30;99.90
20858;DHT22;10589;53.636;10.012;2023-02-15T08:34:20;3.30;99.90
20858;DHT22;10589;53.636;10.012;2023-02-15T08:36:46;3.30;99.90
20858;DHT22;10589;53.636;10.012;2023-02-15T08:39:13;3.30;99.90
20858;DHT22;10589;53.636;10.012;2023-02-15T08:41:41;3.40;99.90
20858;DHT22;10589;53.636;10.012;2023-02-15T08:44:08;3.40;99.90
20858;DHT22;10589;53.636;10.012;2023-02-15T08:46:38;3.30;99.90
20858;DHT22;10589;53.636;10.012;2023-02-15T08:49:05;3.30;99.90
20858;DHT22;10589;53.636;10.012;2023-02-15T08:51:33;3.40;99.90
20858;DHT22;10589;53.636;10.012;2023-02-15T08:54:04;3.40;99.90
20858;DHT22;10589;53.636;10.012;2023-02-15T08:56:37;3.40;99.90
20858;DHT22;10589;53.636;10.012;2023-02-15T08:59:03;3.40;99.90
20858;DHT22;10589;53.636;10.012;2023-02-15T09:01:31;3.50;99.90
20858;DHT22;10589;53.636;10.012;2023-02-15T09:04:00;3.40;99.90
20858;DHT22;10589;53.636;10.012;2023-02-15T09:06:27;3.40;99.90
20858;DHT22;10589;53.636;10.012;2023-02-15T09:08:53;3.40;99.90
20858;DHT22;10589;53.636;10.012;2023-02-15T09:13:56;3.40;99.90
20858;DHT22;10589;53.636;10.012;2023-02-15T09:16:24;3.50;99.90
20858;DHT22;10589;53.636;10.012;2023-02-15T09:18:51;3.50;99.90
20858;DHT22;10589;53.636;10.012;2023-02-15T09:21:20;3.50;99.90
20858;DHT22;10589;53.636;10.012;2023-02-15T09:23:48;3.50;99.90
20858;DHT22;10589;53.636;10.012;2023-02-15T09:26:17;3.60;99.90
20858;DHT22;10589;53.636;10.012;2023-02-15T09:28:46;3.50;99.90
20858;DHT22;10589;53.636;10.012;2023-02-15T09:31:17;3.50;99.90
20858;DHT22;10589;53.636;10.012;2023-02-15T09:33:55;3.50;99.90
20858;DHT22;10589;53.636;10.012;2023-02-15T09:39:15;3.60;99.90
20858;DHT22;10589;53.636;10.012;2023-02-15T09:50:53;3.50;99.90
20858;DHT22;10589;53.636;10.012;2023-02-15T09:56:33;3.80;99.90
20858;DHT22;10589;53.636;10.012;2023-02-15T09:59:19;3.70;99.90
20858;DHT22;10589;53.636;10.012;2023-02-15T10:05:05;3.80;99.90
20858;DHT22;10589;53.636;10.012;2023-02-15T10:08:09;3.80;99.90
20858;DHT22;10589;53.636;10.012;2023-02-15T10:11:09;3.80;99.90
20858;DHT22;10589;53.636;10.012;2023-02-15T10:19:31;3.80;99.90
20858;DHT22;10589;53.636;10.012;2023-02-15T10:25:25;4.00;99.90
20858;DHT22;10589;53.636;10.012;2023-02-15T10:27:49;4.40;99.90
20858;DHT22;10589;53.636;10.012;2023-02-15T10:33:40;4.60;99.90
20858;DHT22;10589;53.636;10.012;2023-02-15T10:47:33;4.60;99.90
20858;DHT22;10589;53.636;10.012;2023-02-15T10:50:45;4.40;99.90
20858;DHT22;10589;53.636;10.012;2023-02-15T11:07:02;4.60;99.90
20858;DHT22;10589;53.636;10.012;2023-02-15T11:09:42;4.80;99.90
20858;DHT22;10589;53.636;10.012;2023-02-15T11:12:21;4.90;99.90
20858;DHT22;10589;53.636;10.012;2023-02-15T11:15:30;4.90;99.90
20858;DHT22;10589;53.636;10.012;2023-02-15T11:21:05;4.90;99.90
20858;DHT22;10589;53.636;10.012;2023-02-15T11:23:44;5.00;99.90
20858;DHT22;10589;53.636;10.012;2023-02-15T11:32:26;5.10;99.90
20858;DHT22;10589;53.636;10.012;2023-02-15T11:38:11;5.40;99.90
20858;DHT22;10589;53.636;10.012;2023-02-15T11:43:35;5.60;99.90
20858;DHT22;10589;53.636;10.012;2023-02-15T11:46:02;5.80;99.90
20858;DHT22;10589;53.636;10.012;2023-02-15T11:48:30;5.70;99.90
20858;DHT22;10589;53.636;10.012;2023-02-15T11:50:56;5.70;99.90
20858;DHT22;10589;53.636;10.012;2023-02-15T11:53:23;5.70;99.90
20858;DHT22;10589;53.636;10.012;2023-02-15T11:55:53;5.80;99.90
20858;DHT22;10589;53.636;10.012;2023-02-15T12:00:53;5.80;99.90
20858;DHT22;10589;53.636;10.012;2023-02-15T12:03:27;6.10;99.90
20858;DHT22;10589;53.636;10.012;2023-02-15T12:06:01;6.20;99.90
20858;DHT22;10589;53.636;10.012;2023-02-15T12:08:38;6.50;99.90
20858;DHT22;10589;53.636;10.012;2023-02-15T12:11:39;6.70;99.90
20858;DHT22;10589;53.636;10.012;2023-02-15T12:14:07;6.90;99.90
20858;DHT22;10589;53.636;10.012;2023-02-15T12:17:00;7.00;99.90
20858;DHT22;10589;53.636;10.012;2023-02-15T12:19:32;6.80;99.90
20858;DHT22;10589;53.636;10.012;2023-02-15T12:21:59;7.10;99.90
20858;DHT22;10589;53.636;10.012;2023-02-15T12:24:30;7.00;99.90
20858;DHT22;10589;53.636;10.012;2023-02-15T12:29:27;7.10;99.90
20858;DHT22;10589;53.636;10.012;2023-02-15T12:31:55;7.20;99.90
20858;DHT22;10589;53.636;10.012;2023-02-15T12:34:32;7.20;99.90
20858;DHT22;10589;53.636;10.012;2023-02-15T12:37:09;7.50;99.90
20858;DHT22;10589;53.636;10.012;2023-02-15T12:39:35;7.50;99.90
20858;DHT22;10589;53.636;10.012;2023-02-15T12:42:16;7.60;99.90
20858;DHT22;10589;53.636;10.012;2023-02-15T12:45:03;7.60;99.90
20858;DHT22;10589;53.636;10.012;2023-02-15T12:47:44;7.70;99.90
20858;DHT22;10589;53.636;10.012;2023-02-15T12:50:23;7.70;99.90
20858;DHT22;10589;53.636;10.012;2023-02-15T12:53:06;7.80;99.90
20858;DHT22;10589;53.636;10.012;2023-02-15T12:55:32;7.90;99.90
20858;DHT22;10589;53.636;10.012;2023-02-15T12:58:15;8.00;99.90
20858;DHT22;10589;53.636;10.012;2023-02-15T13:00:42;8.00;99.90
20858;DHT22;10589;53.636;10.012;2023-02-15T13:03:20;8.00;99.90
20858;DHT22;10589;53.636;10.012;2023-02-15T13:05:51;8.00;99.90
20858;DHT22;10589;53.636;10.012;2023-02-15T13:08:28;8.00;99.90
20858;DHT22;10589;53.636;10.012;2023-02-15T13:11:07;8.10;99.90
20858;DHT22;10589;53.636;10.012;2023-02-15T13:13:56;8.20;99.90
20858;DHT22;10589;53.636;10.012;2023-02-15T13:18:55;8.40;99.90
20858;DHT22;10589;53.636;10.012;2023-02-15T13:21:32;8.50;99.90
20858;DHT22;10589;53.636;10.012;2023-02-15T13:24:02;8.70;99.90
20858;DHT22;10589;53.636;10.012;2023-02-15T13:26:32;8.80;99.90
20858;DHT22;10589;53.636;10.012;2023-02-15T13:29:08;9.20;99.90
20858;DHT22;10589;53.636;10.012;2023-02-15T13:31:38;9.20;99.90
20858;DHT22;10589;53.636;10.012;2023-02-15T13:34:12;9.00;99.90
20858;DHT22;10589;53.636;10.012;2023-02-15T13:37:19;9.20;99.90
20858;DHT22;10589;53.636;10.012;2023-02-15T13:40:24;9.90;99.90
20858;DHT22;10589;53.636;10.012;2023-02-15T13:43:19;11.30;99.90
20858;DHT22;10589;53.636;10.012;2023-02-15T13:48:41;13.30;99.90
20858;DHT22;10589;53.636;10.012;2023-02-15T14:00:22;12.90;99.90
20858;DHT22;10589;53.636;10.012;2023-02-15T14:16:31;13.60;99.90
20858;DHT22;10589;53.636;10.012;2023-02-15T14:21:57;13.50;99.90
20858;DHT22;10589;53.636;10.012;2023-02-15T14:27:34;13.90;99.90
20858;DHT22;10589;53.636;10.012;2023-02-15T14:30:18;14.20;99.90
20858;DHT22;10589;53.636;10.012;2023-02-15T14:32:52;13.90;99.90
20858;DHT22;10589;53.636;10.012;2023-02-15T14:35:21;13.80;99.90
20858;DHT22;10589;53.636;10.012;2023-02-15T14:37:54;13.40;99.90
20858;DHT22;10589;53.636;10.012;2023-02-15T14:43:56;12.20;99.90
20858;DHT22;10589;53.636;10.012;2023-02-15T14:57:32;10.50;99.90
20858;DHT22;10589;53.636;10.012;2023-02-15T15:04:33;10.40;99.90
20858;DHT22;10589;53.636;10.012;2023-02-15T15:07:21;10.30;99.90
20858;DHT22;10589;53.636;10.012;2023-02-15T15:10:32;10.20;99.90
20858;DHT22;10589;53.636;10.012;2023-02-15T15:12:56;10.20;99.90
20858;DHT22;10589;53.636;10.012;2023-02-15T15:18:07;9.80;99.90
20858;DHT22;10589;53.636;10.012;2023-02-15T15:20:47;9.70;99.90
20858;DHT22;10589;53.636;10.012;2023-02-15T15:28:07;9.50;99.90
20858;DHT22;10589;53.636;10.012;2023-02-15T15:33:25;9.40;99.90
20858;DHT22;10589;53.636;10.012;2023-02-15T15:50:32;8.40;99.90
20858;DHT22;10589;53.636;10.012;2023-02-15T15:52:59;8.30;99.90
20858;DHT22;10589;53.636;10.012;2023-02-15T15:55:28;8.20;99.90
20858;DHT22;10589;53.636;10.012;2023-02-15T15:58:02;8.00;99.90
20858;DHT22;10589;53.636;10.012;2023-02-15T16:02:57;7.70;99.90
20858;DHT22;10589;53.636;10.012;2023-02-15T16:05:23;7.60;99.90
20858;DHT22;10589;53.636;10.012;2023-02-15T16:07:49;7.50;99.90
20858;DHT22;10589;53.636;10.012;2023-02-15T16:10:25;7.40;99.90
20858;DHT22;10589;53.636;10.012;2023-02-15T16:12:52;7.30;99.90
20858;DHT22;10589;53.636;10.012;2023-02-15T16:15:24;7.20;99.90
20858;DHT22;10589;53.636;10.012;2023-02-15T16:17:56;7.10;99.90
20858;DHT22;10589;53.636;10.012;2023-02-15T16:20:33;7.00;99.90
20858;DHT22;10589;53.636;10.012;2023-02-15T16:23:25;6.90;99.90
20858;DHT22;10589;53.636;10.012;2023-02-15T16:28:53;6.60;99.90
20858;DHT22;10589;53.636;10.012;2023-02-15T16:31:21;6.50;99.90
20858;DHT22;10589;53.636;10.012;2023-02-15T16:33:53;6.40;99.90
20858;DHT22;10589;53.636;10.012;2023-02-15T16:36:27;6.40;99.90
20858;DHT22;10589;53.636;10.012;2023-02-15T16:41:28;6.20;99.90
20858;DHT22;10589;53.636;10.012;2023-02-15T16:43:57;6.10;99.90
20858;DHT22;10589;53.636;10.012;2023-02-15T16:48:51;6.00;99.90
20858;DHT22;10589;53.636;10.012;2023-02-15T16:51:23;5.90;99.90
20858;DHT22;10589;53.636;10.012;2023-02-15T16:53:49;5.90;99.90
20858;DHT22;10589;53.636;10.012;2023-02-15T16:56:26;5.80;99.90
20858;DHT22;10589;53.636;10.012;2023-02-15T16:58:53;5.80;99.90
20858;DHT22;10589;53.636;10.012;2023-02-15T17:01:27;5.70;99.90
20858;DHT22;10589;53.636;10.012;2023-02-15T17:07:06;5.60;99.90
20858;DHT22;10589;53.636;10.012;2023-02-15T17:09:33;5.50;99.90
20858;DHT22;10589;53.636;10.012;2023-02-15T17:11:59;5.50;99.90
20858;DHT22;10589;53.636;10.012;2023-02-15T17:14:29;5.40;99.90
20858;DHT22;10589;53.636;10.012;2023-02-15T17:17:15;5.40;99.90
20858;DHT22;10589;53.636;10.012;2023-02-15T17:19:51;5.40;99.90
20858;DHT22;10589;53.636;10.012;2023-02-15T17:22:25;5.40;99.90
20858;DHT22;10589;53.636;10.012;2023-02-15T17:25:00;5.40;99.90
20858;DHT22;10589;53.636;10.012;2023-02-15T17:27:28;5.30;99.90
20858;DHT22;10589;53.636;10.012;2023-02-15T17:30:01;5.20;99.90
20858;DHT22;10589;53.636;10.012;2023-02-15T17:32:29;5.20;99.90
20858;DHT22;10589;53.636;10.012;2023-02-15T17:35:21;5.30;99.90
20858;DHT22;10589;53.636;10.012;2023-02-15T17:38:03;5.30;99.90
20858;DHT22;10589;53.636;10.012;2023-02-15T17:40:32;5.30;99.90
20858;DHT22;10589;53.636;10.012;2023-02-15T17:42:57;5.20;99.90
20858;DHT22;10589;53.636;10.012;2023-02-15T17:45:26;5.10;99.90
20858;DHT22;10589;53.636;10.012;2023-02-15T17:47:55;5.10;99.90
20858;DHT22;10589;53.636;10.012;2023-02-15T17:50:26;5.10;99.90
20858;DHT22;10589;53.636;10.012;2023-02-15T17:52:53;5.10;99.90
20858;DHT22;10589;53.636;10.012;2023-02-15T17:55:22;5.00;99.90
20858;DHT22;10589;53.636;10.012;2023-02-15T17:58:00;4.90;99.90
20858;DHT22;10589;53.636;10.012;2023-02-15T18:00:26;4.90;99.90
20858;DHT22;10589;53.636;10.012;2023-02-15T18:03:11;4.80;99.90
20858;DHT22;10589;53.636;10.012;2023-02-15T18:05:56;4.70;99.90
20858;DHT22;10589;53.636;10.012;2023-02-15T18:08:40;4.60;99.90
20858;DHT22;10589;53.636;10.012;2023-02-15T18:11:24;4.60;99.90
20858;DHT22;10589;53.636;10.012;2023-02-15T18:14:09;4.60;99.90
20858;DHT22;10589;53.636;10.012;2023-02-15T18:16:40;4.60;99.90
20858;DHT22;10589;53.636;10.012;2023-02-15T18:19:26;4.60;99.90
20858;DHT22;10589;53.636;10.012;2023-02-15T18:21:52;4.60;99.90
20858;DHT22;10589;53.636;10.012;2023-02-15T18:24:22;4.60;99.90
20858;DHT22;10589;53.636;10.012;2023-02-15T18:26:52;4.50;99.90
20858;DHT22;10589;53.636;10.012;2023-02-15T18:29:18;4.50;99.90
20858;DHT22;10589;53.636;10.012;2023-02-15T18:31:45;4.50;99.90
20858;DHT22;10589;53.636;10.012;2023-02-15T18:34:22;4.60;99.90
20858;DHT22;10589;53.636;10.012;2023-02-15T18:36:49;4.50;99.90
20858;DHT22;10589;53.636;10.012;2023-02-15T18:39:25;4.60;99.90
20858;DHT22;10589;53.636;10.012;2023-02-15T18:41:52;4.60;99.90
20858;DHT22;10589;53.636;10.012;2023-02-15T18:44:18;4.60;99.90
20858;DHT22;10589;53.636;10.012;2023-02-15T18:46:43;4.60;99.90
20858;DHT22;10589;53.636;10.012;2023-02-15T18:49:09;4.50;99.90
20858;DHT22;10589;53.636;10.012;2023-02-15T18:51:35;4.50;99.90
20858;DHT22;10589;53.636;10.012;2023-02-15T18:54:05;4.50;99.90
20858;DHT22;10589;53.636;10.012;2023-02-15T18:56:31;4.50;99.90
20858;DHT22;10589;53.636;10.012;2023-02-15T18:58:57;4.50;99.90
20858;DHT22;10589;53.636;10.012;2023-02-15T19:01:23;4.40;99.90
20858;DHT22;10589;53.636;10.012;2023-02-15T19:03:49;4.40;99.90
20858;DHT22;10589;53.636;10.012;2023-02-15T19:06:20;4.40;99.90
20858;DHT22;10589;53.636;10.012;2023-02-15T19:08:48;4.40;99.90
20858;DHT22;10589;53.636;10.012;2023-02-15T19:11:17;4.40;99.90
20858;DHT22;10589;53.636;10.012;2023-02-15T19:13:44;4.40;99.90
20858;DHT22;10589;53.636;10.012;2023-02-15T19:16:26;4.30;99.90
20858;DHT22;10589;53.636;10.012;2023-02-15T19:18:52;4.30;99.90
20858;DHT22;10589;53.636;10.012;2023-02-15T19:21:17;4.30;99.90
20858;DHT22;10589;53.636;10.012;2023-02-15T19:23:54;4.20;99.90
20858;DHT22;10589;53.636;10.012;2023-02-15T19:26:21;4.20;99.90
20858;DHT22;10589;53.636;10.012;2023-02-15T19:28:47;4.20;99.90
20858;DHT22;10589;53.636;10.012;2023-02-15T19:31:12;4.20;99.90
20858;DHT22;10589;53.636;10.012;2023-02-15T19:33:38;4.20;99.90
20858;DHT22;10589;53.636;10.012;2023-02-15T19:36:07;4.20;99.90
20858;DHT22;10589;53.636;10.012;2023-02-15T19:38:36;4.20;99.90
20858;DHT22;10589;53.636;10.012;2023-02-15T19:41:05;4.10;99.90
20858;DHT22;10589;53.636;10.012;2023-02-15T19:43:33;4.00;99.90
20858;DHT22;10589;53.636;10.012;2023-02-15T19:45:58;4.00;99.90
20858;DHT22;10589;53.636;10.012;2023-02-15T19:48:24;4.00;99.90
20858;DHT22;10589;53.636;10.012;2023-02-15T19:50:50;4.00;99.90
20858;DHT22;10589;53.636;10.012;2023-02-15T19:53:21;4.00;99.90
20858;DHT22;10589;53.636;10.012;2023-02-15T19:55:47;4.00;99.90
20858;DHT22;10589;53.636;10.012;2023-02-15T19:58:13;3.90;99.90
20858;DHT22;10589;53.636;10.012;2023-02-15T20:00:39;4.00;99.90
20858;DHT22;10589;53.636;10.012;2023-02-15T20:03:06;3.90;99.90
20858;DHT22;10589;53.636;10.012;2023-02-15T20:05:34;3.80;99.90
20858;DHT22;10589;53.636;10.012;2023-02-15T20:08:03;3.80;99.90
20858;DHT22;10589;53.636;10.012;2023-02-15T20:10:33;3.80;99.90
20858;DHT22;10589;53.636;10.012;2023-02-15T20:12:59;3.70;99.90
20858;DHT22;10589;53.636;10.012;2023-02-15T20:17:51;3.70;99.90
20858;DHT22;10589;53.636;10.012;2023-02-15T20:20:18;3.60;99.90
20858;DHT22;10589;53.636;10.012;2023-02-15T20:22:46;3.60;99.90
20858;DHT22;10589;53.636;10.012;2023-02-15T20:25:19;3.50;99.90
20858;DHT22;10589;53.636;10.012;2023-02-15T20:27:46;3.50;99.90
20858;DHT22;10589;53.636;10.012;2023-02-15T20:30:30;3.50;99.90
20858;DHT22;10589;53.636;10.012;2023-02-15T20:32:56;3.40;99.90
20858;DHT22;10589;53.636;10.012;2023-02-15T20:35:24;3.30;99.90
20858;DHT22;10589;53.636;10.012;2023-02-15T20:37:55;3.30;99.90
20858;DHT22;10589;53.636;10.012;2023-02-15T20:40:24;3.30;99.90
20858;DHT22;10589;53.636;10.012;2023-02-15T20:42:50;3.40;99.90
20858;DHT22;10589;53.636;10.012;2023-02-15T20:45:30;3.40;99.90
20858;DHT22;10589;53.636;10.012;2023-02-15T20:47:57;3.40;99.90
20858;DHT22;10589;53.636;10.012;2023-02-15T20:50:25;3.40;99.90
20858;DHT22;10589;53.636;10.012;2023-02-15T20:52:53;3.40;99.90
20858;DHT22;10589;53.636;10.012;2023-02-15T20:55:38;3.50;99.90
20858;DHT22;10589;53.636;10.012;2023-02-15T20:58:17;3.50;99.90
20858;DHT22;10589;53.636;10.012;2023-02-15T21:00:43;3.50;99.90
20858;DHT22;10589;53.636;10.012;2023-02-15T21:03:11;3.40;99.90
20858;DHT22;10589;53.636;10.012;2023-02-15T21:05:38;3.40;99.90
20858;DHT22;10589;53.636;10.012;2023-02-15T21:08:16;3.50;99.90
20858;DHT22;10589;53.636;10.012;2023-02-15T21:10:44;3.40;99.90
20858;DHT22;10589;53.636;10.012;2023-02-15T21:13:21;3.40;99.90
20858;DHT22;10589;53.636;10.012;2023-02-15T21:15:47;3.40;99.90
20858;DHT22;10589;53.636;10.012;2023-02-15T21:20:48;3.20;99.90
20858;DHT22;10589;53.636;10.012;2023-02-15T21:23:15;3.10;99.90
20858;DHT22;10589;53.636;10.012;2023-02-15T21:25:42;3.10;99.90
20858;DHT22;10589;53.636;10.012;2023-02-15T21:28:17;3.10;99.90
20858;DHT22;10589;53.636;10.012;2023-02-15T21:30:43;3.00;99.90
20858;DHT22;10589;53.636;10.012;2023-02-15T21:33:09;3.00;99.90
20858;DHT22;10589;53.636;10.012;2023-02-15T21:35:35;3.00;99.90
20858;DHT22;10589;53.636;10.012;2023-02-15T21:38:02;3.00;99.90
20858;DHT22;10589;53.636;10.012;2023-02-15T21:40:30;2.90;99.90
20858;DHT22;10589;53.636;10.012;2023-02-15T21:42:57;2.80;99.90
20858;DHT22;10589;53.636;10.012;2023-02-15T21:45:41;2.70;99.90
20858;DHT22;10589;53.636;10.012;2023-02-15T21:48:26;2.70;99.90
20858;DHT22;10589;53.636;10.012;2023-02-15T21:50:51;2.60;99.90
20858;DHT22;10589;53.636;10.012;2023-02-15T21:53:39;2.60;99.90
20858;DHT22;10589;53.636;10.012;2023-02-15T21:56:22;2.60;99.90
20858;DHT22;10589;53.636;10.012;2023-02-15T21:58:49;2.50;99.90
20858;DHT22;10589;53.636;10.012;2023-02-15T22:01:24;2.50;99.90
20858;DHT22;10589;53.636;10.012;2023-02-15T22:03:51;2.40;99.90
20858;DHT22;10589;53.636;10.012;2023-02-15T22:06:18;2.40;99.90
20858;DHT22;10589;53.636;10.012;2023-02-15T22:08:44;2.30;99.90
20858;DHT22;10589;53.636;10.012;2023-02-15T22:11:15;2.30;99.90
20858;DHT22;10589;53.636;10.012;2023-02-15T22:13:42;2.20;99.90
20858;DHT22;10589;53.636;10.012;2023-02-15T22:16:16;2.20;99.90
20858;DHT22;10589;53.636;10.012;2023-02-15T22:18:43;2.20;99.90
20858;DHT22;10589;53.636;10.012;2023-02-15T22:21:10;2.10;99.90
20858;DHT22;10589;53.636;10.012;2023-02-15T22:23:36;2.00;99.90
20858;DHT22;10589;53.636;10.012;2023-02-15T22:26:04;2.00;99.90
20858;DHT22;10589;53.636;10.012;2023-02-15T22:28:35;1.90;99.90
20858;DHT22;10589;53.636;10.012;2023-02-15T22:31:02;1.90;99.90
20858;DHT22;10589;53.636;10.012;2023-02-15T22:33:31;1.90;99.90
20858;DHT22;10589;53.636;10.012;2023-02-15T22:35:58;1.80;99.90
20858;DHT22;10589;53.636;10.012;2023-02-15T22:38:24;1.80;99.90
20858;DHT22;10589;53.636;10.012;2023-02-15T22:40:51;1.70;99.90
20858;DHT22;10589;53.636;10.012;2023-02-15T22:43:32;1.70;99.90
20858;DHT22;10589;53.636;10.012;2023-02-15T22:46:01;1.70;99.90
20858;DHT22;10589;53.636;10.012;2023-02-15T22:48:28;1.70;99.90
20858;DHT22;10589;53.636;10.012;2023-02-15T22:50:54;1.70;99.90
20858;DHT22;10589;53.636;10.012;2023-02-15T22:53:19;1.70;99.90
20858;DHT22;10589;53.636;10.012;2023-02-15T22:55:45;1.70;99.90
20858;DHT22;10589;53.636;10.012;2023-02-15T22:58:18;1.60;99.90
20858;DHT22;10589;53.636;10.012;2023-02-15T23:00:45;1.70;99.90
20858;DHT22;10589;53.636;10.012;2023-02-15T23:03:18;1.60;99.90
20858;DHT22;10589;53.636;10.012;2023-02-15T23:05:45;1.70;99.90
20858;DHT22;10589;53.636;10.012;2023-02-15T23:08:11;1.70;99.90
20858;DHT22;10589;53.636;10.012;2023-02-15T23:10:38;1.60;99.90
20858;DHT22;10589;53.636;10.012;2023-02-15T23:13:17;1.60;99.90
20858;DHT22;10589;53.636;10.012;2023-02-15T23:15:57;1.60;99.90
20858;DHT22;10589;53.636;10.012;2023-02-15T23:18:36;1.60;99.90
20858;DHT22;10589;53.636;10.012;2023-02-15T23:23:41;1.60;99.90
20858;DHT22;10589;53.636;10.012;2023-02-15T23:26:23;1.50;99.90
20858;DHT22;10589;53.636;10.012;2023-02-15T23:28:50;1.50;99.90
